Eurocargo Venezia — IBKS — position and weather

sailwx.info

Track history (hours):
 
Tides and Currents Weather Stations Pressure Air Temp Water Temp Dewpoint Dewpoint Depression Visibility Wind Speed Wind Dir Waves Ship Positions

Eurocargo Venezia

Last reported at 2017-Mar-28 11:31 UTC. Time now 2017-Mar-28 12:06 UTC.
Position N 43°35' E 010°19'.

Length 200 m; draft 7.3 m.

Type: Ship (hazmat cat D). MMSI: 247297200.

Date/timePositionNaut miles runAvg speedWind from/ knotsBaromVisibWave heightAir tempDewpointWater temp
2017-Mar-28 11:31N 43°35' E 010°19'0 0.0
2017-Mar-28 10:31N 43°35' E 010°19'0 0.0
2017-Mar-28 09:31N 43°35' E 010°19'0 0.0
2017-Mar-28 08:31N 43°35' E 010°19'0 0.0
2017-Mar-28 07:31N 43°35' E 010°19'0 0.0
2017-Mar-28 06:31N 43°35' E 010°19'0 0.0
2017-Mar-28 05:31N 43°35' E 010°19'0 0.0
2017-Mar-28 04:31N 43°35' E 010°19'0 0.0
2017-Mar-28 03:31N 43°35' E 010°19'0 0.0
2017-Mar-28 02:31N 43°35' E 010°19'0 0.0
2017-Mar-28 01:31N 43°35' E 010°19'4 3.9
2017-Mar-28 00:34N 43°32' E 010°16'2 2.2
2017-Mar-27 23:34N 43°30' E 010°14'1615.5
2017-Mar-27 22:33N 43°33' E 009°53'2120.7
2017-Mar-27 21:33N 43°49' E 009°35'2120.6
2017-Mar-27 20:33N 44°04' E 009°16'2020.3
2017-Mar-27 19:33N 44°20' E 008°58'5 5.2
2017-Mar-27 18:31N 44°24' E 008°53'0 0.0
2017-Mar-27 17:31N 44°24' E 008°53'0 0.0
2017-Mar-27 16:31N 44°24' E 008°53'0 0.0
2017-Mar-27 15:31N 44°24' E 008°53'0 0.0
2017-Mar-27 14:28N 44°24' E 008°53'0 0.0
2017-Mar-27 13:31N 44°24' E 008°53'0 0.0
2017-Mar-27 12:31N 44°24' E 008°53'0 0.0
2017-Mar-27 11:31N 44°24' E 008°53'0 0.0
2017-Mar-27 10:31N 44°24' E 008°53'0 0.0
2017-Mar-27 09:31N 44°24' E 008°53'0 0.0
2017-Mar-27 08:31N 44°24' E 008°53'0 0.0
2017-Mar-27 07:28N 44°24' E 008°53'0 0.0
2017-Mar-27 06:22N 44°24' E 008°53'3 4.3
2017-Mar-27 05:33N 44°23' E 008°57'1716.6
2017-Mar-27 04:34N 44°09' E 009°11'2019.7
2017-Mar-27 03:34N 43°54' E 009°29'1919.4
2017-Mar-27 02:33N 43°39' E 009°46'1919.1
2017-Mar-27 01:34N 43°26' E 010°05'2019.7
2017-Mar-27 00:33N 43°08' E 010°17'31319.5
2017-Mar-26 08:28N 39°17' E 014°58'1920.5
2017-Mar-26 07:33N 39°02' E 015°12'2020.0
2017-Mar-26 06:33N 38°45' E 015°26'2019.9
2017-Mar-26 05:33N 38°27' E 015°37'1514.9
2017-Mar-26 04:33N 38°13' E 015°37'1818.3
2017-Mar-26 03:33N 37°55' E 015°29'2120.5
2017-Mar-26 02:33N 37°37' E 015°18'71 6.2
2017-Mar-25 15:08N 36°27' E 015°01'1320.9
2017-Mar-25 14:32N 36°17' E 014°52'2020.5
2017-Mar-25 13:34N 36°01' E 014°38'10 9.0
2017-Mar-25 12:30N 35°53' E 014°31'0 0.0
2017-Mar-25 11:32N 35°53' E 014°31'0 0.0
2017-Mar-25 10:33N 35°53' E 014°31'0 0.0
2017-Mar-25 09:33N 35°53' E 014°31'0 0.0
2017-Mar-25 08:33N 35°53' E 014°31'0 0.0
2017-Mar-25 07:33N 35°53' E 014°31'0 0.0
2017-Mar-25 06:33N 35°53' E 014°31'0 0.0
2017-Mar-25 05:33N 35°53' E 014°31'0 0.0
2017-Mar-25 04:31N 35°53' E 014°31'3 3.3
2017-Mar-25 03:33N 35°55' E 014°33'1818.2
2017-Mar-25 02:33N 36°10' E 014°46'5718.5
2017-Mar-24 23:28N 36°58' E 015°25'2618.3
2017-Mar-24 22:03N 37°22' E 015°13'9 3.2
2017-Mar-24 19:11N 37°29' E 015°06'0 0.0
2017-Mar-24 18:29N 37°29' E 015°06'0 0.0
2017-Mar-24 17:29N 37°29' E 015°06'0 0.0
2017-Mar-24 16:23N 37°29' E 015°06'0 0.0
2017-Mar-24 15:29N 37°29' E 015°06'0 0.0
2017-Mar-24 14:23N 37°29' E 015°06'4 4.4
2017-Mar-24 13:22N 37°30' E 015°11'1518.2
2017-Mar-24 12:33N 37°42' E 015°21'1818.2
2017-Mar-24 11:33N 37°59' E 015°30'1717.4
2017-Mar-24 10:33N 38°15' E 015°39'1615.9
2017-Mar-24 09:34N 38°31' E 015°33'1918.5
2017-Mar-24 08:33N 38°47' E 015°23'31519.4
2017-Mar-23 16:21N 42°39' E 010°42'1919.2
2017-Mar-23 15:22N 42°55' E 010°28'1519.0
2017-Mar-23 14:33N 43°09' E 010°20'1919.0
2017-Mar-23 13:33N 43°27' E 010°12'9 8.6
2017-Mar-23 12:31N 43°35' E 010°19'0 0.0
2017-Mar-23 11:31N 43°35' E 010°19'0 0.0
2017-Mar-23 10:28N 43°35' E 010°19'0 0.0
2017-Mar-23 09:31N 43°35' E 010°19'0 0.0
2017-Mar-23 08:31N 43°35' E 010°19'0 0.0
2017-Mar-23 07:31N 43°35' E 010°19'0 0.0
2017-Mar-23 06:31N 43°35' E 010°19'0 0.3
2017-Mar-23 05:33N 43°34' E 010°19'8 8.1
2017-Mar-23 04:33N 43°27' E 010°13'8 8.0
2017-Mar-23 03:33N 43°30' E 010°03'1313.5
2017-Mar-23 02:34N 43°38' E 009°48'1514.6
2017-Mar-23 01:34N 43°49' E 009°35'1514.6
2017-Mar-23 00:33N 43°60' E 009°22'1514.9
2017-Mar-22 23:33N 44°11' E 009°07'1414.2
2017-Mar-22 22:33N 44°23' E 008°57'3 2.8
2017-Mar-22 21:31N 44°24' E 008°53'0 0.0
2017-Mar-22 20:31N 44°24' E 008°53'0 0.0
2017-Mar-22 19:31N 44°24' E 008°53'0 0.0
2017-Mar-22 18:31N 44°24' E 008°53'0 0.0
2017-Mar-22 17:31N 44°24' E 008°53'0 0.0
2017-Mar-22 16:31N 44°24' E 008°53'0 0.0
2017-Mar-22 15:22N 44°24' E 008°53'0 0.0
2017-Mar-22 14:22N 44°24' E 008°53'0 0.0
2017-Mar-22 13:31N 44°24' E 008°53'0 0.2
2017-Mar-22 12:33N 44°24' E 008°53'5 5.3
2017-Mar-22 11:34N 44°21' E 008°59'1818.3
2017-Mar-22 10:34N 44°07' E 009°15'1918.9
2017-Mar-22 09:33N 43°51' E 009°29'1918.8
2017-Mar-22 08:33N 43°38' E 009°48'1918.8
2017-Mar-22 07:34N 43°24' E 010°06'33419.6
2017-Mar-21 14:33N 39°14' E 015°01'2020.5
2017-Mar-21 13:33N 38°57' E 015°16'2020.1
2017-Mar-21 12:34N 38°40' E 015°28'2020.4
2017-Mar-21 11:34N 38°22' E 015°40'1615.6
2017-Mar-21 10:33N 38°07' E 015°36'2019.9
2017-Mar-21 09:33N 37°49' E 015°25'2520.2
2017-Mar-21 08:20N 37°27' E 015°09'3 0.4
2017-Mar-21 00:09N 37°29' E 015°06'3316.8
2017-Mar-20 22:10N 37°00' E 015°26'1421.9
2017-Mar-20 21:33N 36°48' E 015°19'2221.8
2017-Mar-20 20:33N 36°30' E 015°04'2121.5
2017-Mar-20 19:33N 36°12' E 014°48'2121.4
2017-Mar-20 18:33N 35°55' E 014°33'3 1.4
2017-Mar-20 16:30N 35°53' E 014°31'0 0.0
2017-Mar-20 15:31N 35°53' E 014°31'0 0.0
2017-Mar-20 14:33N 35°53' E 014°31'0 0.0
2017-Mar-20 12:33N 35°53' E 014°31'0 0.0
2017-Mar-20 10:30N 35°53' E 014°31'0 0.0
2017-Mar-20 09:33N 35°53' E 014°31'0 0.0
2017-Mar-20 08:21N 35°53' E 014°31'1 1.4
2017-Mar-20 07:33N 35°54' E 014°31'1514.9
2017-Mar-20 06:33N 36°06' E 014°42'2120.8
2017-Mar-20 05:33N 36°23' E 014°57'2120.7
2017-Mar-20 04:33N 36°39' E 015°13'2120.5
2017-Mar-20 03:32N 36°58' E 015°25'2120.5
2017-Mar-20 02:31N 37°18' E 015°18'13 2.5
2017-Mar-19 21:07N 37°31' E 015°13'1220.7
2017-Mar-19 20:33N 37°41' E 015°19'2120.6
2017-Mar-19 19:33N 37°60' E 015°30'1919.1
2017-Mar-19 18:34N 38°17' E 015°40'2019.6
2017-Mar-19 17:33N 38°35' E 015°30'2120.8
2017-Mar-19 16:33N 38°53' E 015°18'33320.2
2017-Mar-19 00:06N 43°00' E 010°23'1120.2
2017-Mar-18 23:34N 43°10' E 010°15'2020.3
2017-Mar-18 22:33N 43°28' E 010°03'2020.5
2017-Mar-18 21:34N 43°42' E 009°43'2120.5
2017-Mar-18 20:33N 43°58' E 009°24'2020.2
2017-Mar-18 19:34N 44°13' E 009°06'1414.2
2017-Mar-18 18:34N 44°24' E 008°53'0 0.2
2017-Mar-18 17:32N 44°24' E 008°53'0 0.0
2017-Mar-18 16:29N 44°24' E 008°53'0 0.0
2017-Mar-18 15:32N 44°24' E 008°53'0 0.0
2017-Mar-18 14:32N 44°24' E 008°53'0 0.0
2017-Mar-18 13:29N 44°24' E 008°53'0 0.0
2017-Mar-18 12:32N 44°24' E 008°53'  
Track history (hours):
 
Tides and Currents Weather Stations Pressure Air Temp Water Temp Dewpoint Dewpoint Depression Visibility Wind Speed Wind Dir Waves Ship Positions

Eurocargo Venezia

Last reported at 2017-Mar-28 11:31 UTC. Time now 2017-Mar-28 12:06 UTC.
Position N 43°35' E 010°19'.

Length 200 m; draft 7.3 m.

Type: Ship (hazmat cat D). MMSI: 247297200.

Date/timePositionNaut miles runAvg speedWind from/ knotsBaromVisibWave heightAir tempDewpointWater temp
2017-Mar-28 11:31N 43°35' E 010°19'0 0.0
2017-Mar-28 10:31N 43°35' E 010°19'0 0.0
2017-Mar-28 09:31N 43°35' E 010°19'0 0.0
2017-Mar-28 08:31N 43°35' E 010°19'0 0.0
2017-Mar-28 07:31N 43°35' E 010°19'0 0.0
2017-Mar-28 06:31N 43°35' E 010°19'0 0.0
2017-Mar-28 05:31N 43°35' E 010°19'0 0.0
2017-Mar-28 04:31N 43°35' E 010°19'0 0.0
2017-Mar-28 03:31N 43°35' E 010°19'0 0.0
2017-Mar-28 02:31N 43°35' E 010°19'0 0.0
2017-Mar-28 01:31N 43°35' E 010°19'4 3.9
2017-Mar-28 00:34N 43°32' E 010°16'2 2.2
2017-Mar-27 23:34N 43°30' E 010°14'1615.5
2017-Mar-27 22:33N 43°33' E 009°53'2120.7
2017-Mar-27 21:33N 43°49' E 009°35'2120.6
2017-Mar-27 20:33N 44°04' E 009°16'2020.3
2017-Mar-27 19:33N 44°20' E 008°58'5 5.2
2017-Mar-27 18:31N 44°24' E 008°53'0 0.0
2017-Mar-27 17:31N 44°24' E 008°53'0 0.0
2017-Mar-27 16:31N 44°24' E 008°53'0 0.0
2017-Mar-27 15:31N 44°24' E 008°53'0 0.0
2017-Mar-27 14:28N 44°24' E 008°53'0 0.0
2017-Mar-27 13:31N 44°24' E 008°53'0 0.0
2017-Mar-27 12:31N 44°24' E 008°53'0 0.0
2017-Mar-27 11:31N 44°24' E 008°53'0 0.0
2017-Mar-27 10:31N 44°24' E 008°53'0 0.0
2017-Mar-27 09:31N 44°24' E 008°53'0 0.0
2017-Mar-27 08:31N 44°24' E 008°53'0 0.0
2017-Mar-27 07:28N 44°24' E 008°53'0 0.0
2017-Mar-27 06:22N 44°24' E 008°53'3 4.3
2017-Mar-27 05:33N 44°23' E 008°57'1716.6
2017-Mar-27 04:34N 44°09' E 009°11'2019.7
2017-Mar-27 03:34N 43°54' E 009°29'1919.4
2017-Mar-27 02:33N 43°39' E 009°46'1919.1
2017-Mar-27 01:34N 43°26' E 010°05'2019.7
2017-Mar-27 00:33N 43°08' E 010°17'31319.5
2017-Mar-26 08:28N 39°17' E 014°58'1920.5
2017-Mar-26 07:33N 39°02' E 015°12'2020.0
2017-Mar-26 06:33N 38°45' E 015°26'2019.9
2017-Mar-26 05:33N 38°27' E 015°37'1514.9
2017-Mar-26 04:33N 38°13' E 015°37'1818.3
2017-Mar-26 03:33N 37°55' E 015°29'2120.5
2017-Mar-26 02:33N 37°37' E 015°18'71 6.2
2017-Mar-25 15:08N 36°27' E 015°01'1320.9
2017-Mar-25 14:32N 36°17' E 014°52'2020.5
2017-Mar-25 13:34N 36°01' E 014°38'10 9.0
2017-Mar-25 12:30N 35°53' E 014°31'0 0.0
2017-Mar-25 11:32N 35°53' E 014°31'0 0.0
2017-Mar-25 10:33N 35°53' E 014°31'0 0.0
2017-Mar-25 09:33N 35°53' E 014°31'0 0.0
2017-Mar-25 08:33N 35°53' E 014°31'0 0.0
2017-Mar-25 07:33N 35°53' E 014°31'0 0.0
2017-Mar-25 06:33N 35°53' E 014°31'0 0.0
2017-Mar-25 05:33N 35°53' E 014°31'0 0.0
2017-Mar-25 04:31N 35°53' E 014°31'3 3.3
2017-Mar-25 03:33N 35°55' E 014°33'1818.2
2017-Mar-25 02:33N 36°10' E 014°46'5718.5
2017-Mar-24 23:28N 36°58' E 015°25'2618.3
2017-Mar-24 22:03N 37°22' E 015°13'9 3.2
2017-Mar-24 19:11N 37°29' E 015°06'0 0.0
2017-Mar-24 18:29N 37°29' E 015°06'0 0.0
2017-Mar-24 17:29N 37°29' E 015°06'0 0.0
2017-Mar-24 16:23N 37°29' E 015°06'0 0.0
2017-Mar-24 15:29N 37°29' E 015°06'0 0.0
2017-Mar-24 14:23N 37°29' E 015°06'4 4.4
2017-Mar-24 13:22N 37°30' E 015°11'1518.2
2017-Mar-24 12:33N 37°42' E 015°21'1818.2
2017-Mar-24 11:33N 37°59' E 015°30'1717.4
2017-Mar-24 10:33N 38°15' E 015°39'1615.9
2017-Mar-24 09:34N 38°31' E 015°33'1918.5
2017-Mar-24 08:33N 38°47' E 015°23'31519.4
2017-Mar-23 16:21N 42°39' E 010°42'1919.2
2017-Mar-23 15:22N 42°55' E 010°28'1519.0
2017-Mar-23 14:33N 43°09' E 010°20'1919.0
2017-Mar-23 13:33N 43°27' E 010°12'9 8.6
2017-Mar-23 12:31N 43°35' E 010°19'0 0.0
2017-Mar-23 11:31N 43°35' E 010°19'0 0.0
2017-Mar-23 10:28N 43°35' E 010°19'0 0.0
2017-Mar-23 09:31N 43°35' E 010°19'0 0.0
2017-Mar-23 08:31N 43°35' E 010°19'0 0.0
2017-Mar-23 07:31N 43°35' E 010°19'0 0.0
2017-Mar-23 06:31N 43°35' E 010°19'0 0.3
2017-Mar-23 05:33N 43°34' E 010°19'8 8.1
2017-Mar-23 04:33N 43°27' E 010°13'8 8.0
2017-Mar-23 03:33N 43°30' E 010°03'1313.5
2017-Mar-23 02:34N 43°38' E 009°48'1514.6
2017-Mar-23 01:34N 43°49' E 009°35'1514.6
2017-Mar-23 00:33N 43°60' E 009°22'1514.9
2017-Mar-22 23:33N 44°11' E 009°07'1414.2
2017-Mar-22 22:33N 44°23' E 008°57'3 2.8
2017-Mar-22 21:31N 44°24' E 008°53'0 0.0
2017-Mar-22 20:31N 44°24' E 008°53'0 0.0
2017-Mar-22 19:31N 44°24' E 008°53'0 0.0
2017-Mar-22 18:31N 44°24' E 008°53'0 0.0
2017-Mar-22 17:31N 44°24' E 008°53'0 0.0
2017-Mar-22 16:31N 44°24' E 008°53'0 0.0
2017-Mar-22 15:22N 44°24' E 008°53'0 0.0
2017-Mar-22 14:22N 44°24' E 008°53'0 0.0
2017-Mar-22 13:31N 44°24' E 008°53'0 0.2
2017-Mar-22 12:33N 44°24' E 008°53'5 5.3
2017-Mar-22 11:34N 44°21' E 008°59'1818.3
2017-Mar-22 10:34N 44°07' E 009°15'1918.9
2017-Mar-22 09:33N 43°51' E 009°29'1918.8
2017-Mar-22 08:33N 43°38' E 009°48'1918.8
2017-Mar-22 07:34N 43°24' E 010°06'33419.6
2017-Mar-21 14:33N 39°14' E 015°01'2020.5
2017-Mar-21 13:33N 38°57' E 015°16'2020.1
2017-Mar-21 12:34N 38°40' E 015°28'2020.4
2017-Mar-21 11:34N 38°22' E 015°40'1615.6
2017-Mar-21 10:33N 38°07' E 015°36'2019.9
2017-Mar-21 09:33N 37°49' E 015°25'2520.2
2017-Mar-21 08:20N 37°27' E 015°09'3 0.4
2017-Mar-21 00:09N 37°29' E 015°06'3316.8
2017-Mar-20 22:10N 37°00' E 015°26'1421.9
2017-Mar-20 21:33N 36°48' E 015°19'2221.8
2017-Mar-20 20:33N 36°30' E 015°04'2121.5
2017-Mar-20 19:33N 36°12' E 014°48'2121.4
2017-Mar-20 18:33N 35°55' E 014°33'3 1.4
2017-Mar-20 16:30N 35°53' E 014°31'0 0.0
2017-Mar-20 15:31N 35°53' E 014°31'0 0.0
2017-Mar-20 14:33N 35°53' E 014°31'0 0.0
2017-Mar-20 12:33N 35°53' E 014°31'0 0.0
2017-Mar-20 10:30N 35°53' E 014°31'0 0.0
2017-Mar-20 09:33N 35°53' E 014°31'0 0.0
2017-Mar-20 08:21N 35°53' E 014°31'1 1.4
2017-Mar-20 07:33N 35°54' E 014°31'1514.9
2017-Mar-20 06:33N 36°06' E 014°42'2120.8
2017-Mar-20 05:33N 36°23' E 014°57'2120.7
2017-Mar-20 04:33N 36°39' E 015°13'2120.5
2017-Mar-20 03:32N 36°58' E 015°25'2120.5
2017-Mar-20 02:31N 37°18' E 015°18'13 2.5
2017-Mar-19 21:07N 37°31' E 015°13'1220.7
2017-Mar-19 20:33N 37°41' E 015°19'2120.6
2017-Mar-19 19:33N 37°60' E 015°30'1919.1
2017-Mar-19 18:34N 38°17' E 015°40'2019.6
2017-Mar-19 17:33N 38°35' E 015°30'2120.8
2017-Mar-19 16:33N 38°53' E 015°18'33320.2
2017-Mar-19 00:06N 43°00' E 010°23'1120.2
2017-Mar-18 23:34N 43°10' E 010°15'2020.3
2017-Mar-18 22:33N 43°28' E 010°03'2020.5
2017-Mar-18 21:34N 43°42' E 009°43'2120.5
2017-Mar-18 20:33N 43°58' E 009°24'2020.2
2017-Mar-18 19:34N 44°13' E 009°06'1414.2
2017-Mar-18 18:34N 44°24' E 008°53'0 0.2
2017-Mar-18 17:32N 44°24' E 008°53'0 0.0
2017-Mar-18 16:29N 44°24' E 008°53'0 0.0
2017-Mar-18 15:32N 44°24' E 008°53'0 0.0
2017-Mar-18 14:32N 44°24' E 008°53'0 0.0
2017-Mar-18 13:29N 44°24' E 008°53'0 0.0
2017-Mar-18 12:32N 44°24' E 008°53'  

Dump ship's entire track history